sensor_id;sensor_type;location;lat;lon;timestamp;pressure;altitude;pressure_sealevel;temperature;humidity
50105;BME280;47690;39.202;-77.198;2023-04-15T00:01:02;99569.84;;;51.50;9.52
50105;BME280;47690;39.202;-77.198;2023-04-15T00:03:31;99560.34;;;52.06;9.15
50105;BME280;47690;39.202;-77.198;2023-04-15T00:06:03;99569.22;;;52.03;9.09
50105;BME280;47690;39.202;-77.198;2023-04-15T00:08:33;99569.53;;;52.01;8.61
50105;BME280;47690;39.202;-77.198;2023-04-15T00:11:01;99561.78;;;51.95;8.94
50105;BME280;47690;39.202;-77.198;2023-04-15T00:13:35;99580.91;;;51.68;9.18
50105;BME280;47690;39.202;-77.198;2023-04-15T00:16:05;99584.75;;;51.67;9.19
50105;BME280;47690;39.202;-77.198;2023-04-15T00:18:37;99583.28;;;51.61;9.37
50105;BME280;47690;39.202;-77.198;2023-04-15T00:21:07;99579.13;;;51.72;9.57
50105;BME280;47690;39.202;-77.198;2023-04-15T00:23:40;99578.06;;;51.82;9.37
50105;BME280;47690;39.202;-77.198;2023-04-15T00:26:11;99576.44;;;51.81;9.50
50105;BME280;47690;39.202;-77.198;2023-04-15T00:28:43;99580.78;;;51.82;9.11
50105;BME280;47690;39.202;-77.198;2023-04-15T00:31:18;99583.84;;;51.81;9.07
50105;BME280;47690;39.202;-77.198;2023-04-15T00:33:47;99586.91;;;50.93;9.43
50105;BME280;47690;39.202;-77.198;2023-04-15T00:36:16;99585.94;;;50.75;10.16
50105;BME280;47690;39.202;-77.198;2023-04-15T00:38:46;99589.00;;;50.73;9.70
50105;BME280;47690;39.202;-77.198;2023-04-15T00:41:15;99594.25;;;50.83;10.32
50105;BME280;47690;39.202;-77.198;2023-04-15T00:43:47;99598.34;;;50.72;10.34
50105;BME280;47690;39.202;-77.198;2023-04-15T00:46:16;99601.91;;;50.59;10.28
50105;BME280;47690;39.202;-77.198;2023-04-15T00:48:49;99605.06;;;50.52;10.05
50105;BME280;47690;39.202;-77.198;2023-04-15T00:51:22;99619.72;;;50.47;10.39
50105;BME280;47690;39.202;-77.198;2023-04-15T00:53:53;99617.50;;;50.35;10.18
50105;BME280;47690;39.202;-77.198;2023-04-15T00:56:23;99622.97;;;50.35;10.80
50105;BME280;47690;39.202;-77.198;2023-04-15T00:58:53;99632.19;;;50.39;10.06
50105;BME280;47690;39.202;-77.198;2023-04-15T01:01:26;99622.53;;;50.42;10.69
50105;BME280;47690;39.202;-77.198;2023-04-15T01:03:57;99626.72;;;50.39;10.26
50105;BME280;47690;39.202;-77.198;2023-04-15T01:06:27;99629.25;;;50.36;10.39
50105;BME280;47690;39.202;-77.198;2023-04-15T01:08:59;99636.94;;;50.48;10.25
50105;BME280;47690;39.202;-77.198;2023-04-15T01:11:31;99647.41;;;50.46;10.36
50105;BME280;47690;39.202;-77.198;2023-04-15T01:14:03;99639.69;;;50.48;9.96
50105;BME280;47690;39.202;-77.198;2023-04-15T01:16:32;99648.13;;;50.37;10.03
50105;BME280;47690;39.202;-77.198;2023-04-15T01:19:03;99655.91;;;50.30;10.44
50105;BME280;47690;39.202;-77.198;2023-04-15T01:21:38;99651.84;;;50.69;10.73
50105;BME280;47690;39.202;-77.198;2023-04-15T01:24:10;99664.22;;;50.25;10.26
50105;BME280;47690;39.202;-77.198;2023-04-15T01:26:48;99666.66;;;50.26;10.48
50105;BME280;47690;39.202;-77.198;2023-04-15T01:29:17;99667.28;;;50.09;10.05
50105;BME280;47690;39.202;-77.198;2023-04-15T01:31:54;99670.13;;;50.32;11.14
50105;BME280;47690;39.202;-77.198;2023-04-15T01:34:49;99667.00;;;50.39;10.77
50105;BME280;47690;39.202;-77.198;2023-04-15T01:37:36;99665.53;;;50.27;10.75
50105;BME280;47690;39.202;-77.198;2023-04-15T01:40:06;99667.47;;;50.55;10.50
50105;BME280;47690;39.202;-77.198;2023-04-15T01:42:38;99664.31;;;50.20;11.06
50105;BME280;47690;39.202;-77.198;2023-04-15T01:45:10;99670.00;;;50.09;10.39
50105;BME280;47690;39.202;-77.198;2023-04-15T01:47:42;99669.38;;;50.12;10.84
50105;BME280;47690;39.202;-77.198;2023-04-15T01:50:14;99675.91;;;50.16;10.61
50105;BME280;47690;39.202;-77.198;2023-04-15T01:52:46;99671.59;;;51.17;9.71
50105;BME280;47690;39.202;-77.198;2023-04-15T01:55:19;99671.94;;;50.51;10.02
50105;BME280;47690;39.202;-77.198;2023-04-15T01:57:52;99684.19;;;49.97;10.07
50105;BME280;47690;39.202;-77.198;2023-04-15T02:00:25;99681.53;;;49.92;10.46
50105;BME280;47690;39.202;-77.198;2023-04-15T02:02:58;99686.69;;;49.80;11.16
50105;BME280;47690;39.202;-77.198;2023-04-15T02:05:31;99683.75;;;49.90;10.15
50105;BME280;47690;39.202;-77.198;2023-04-15T02:08:05;99695.00;;;49.88;10.60
50105;BME280;47690;39.202;-77.198;2023-04-15T02:10:39;99690.09;;;49.71;10.78
50105;BME280;47690;39.202;-77.198;2023-04-15T02:13:10;99697.31;;;49.67;10.78
50105;BME280;47690;39.202;-77.198;2023-04-15T02:15:47;99700.75;;;49.73;11.52
50105;BME280;47690;39.202;-77.198;2023-04-15T02:18:21;99700.13;;;49.62;10.78
50105;BME280;47690;39.202;-77.198;2023-04-15T02:20:51;99695.81;;;49.56;11.47
50105;BME280;47690;39.202;-77.198;2023-04-15T02:23:23;99699.31;;;49.61;11.33
50105;BME280;47690;39.202;-77.198;2023-04-15T02:25:55;99693.66;;;49.72;11.18
50105;BME280;47690;39.202;-77.198;2023-04-15T02:28:27;99694.13;;;49.60;11.27
50105;BME280;47690;39.202;-77.198;2023-04-15T02:31:10;99704.81;;;49.89;11.27
50105;BME280;47690;39.202;-77.198;2023-04-15T02:33:42;99711.81;;;50.29;10.24
50105;BME280;47690;39.202;-77.198;2023-04-15T02:36:15;99702.38;;;50.49;10.39
50105;BME280;47690;39.202;-77.198;2023-04-15T02:38:48;99705.41;;;50.48;10.19
50105;BME280;47690;39.202;-77.198;2023-04-15T02:41:21;99702.25;;;50.12;10.78
50105;BME280;47690;39.202;-77.198;2023-04-15T02:44:00;99697.44;;;49.76;10.48
50105;BME280;47690;39.202;-77.198;2023-04-15T02:46:31;99696.22;;;49.11;11.21
50105;BME280;47690;39.202;-77.198;2023-04-15T02:49:02;99702.78;;;49.48;11.37
50105;BME280;47690;39.202;-77.198;2023-04-15T02:51:33;99695.91;;;49.12;10.94
50105;BME280;47690;39.202;-77.198;2023-04-15T02:54:07;99707.97;;;49.11;11.06
50105;BME280;47690;39.202;-77.198;2023-04-15T02:56:38;99719.28;;;49.04;11.18
50105;BME280;47690;39.202;-77.198;2023-04-15T02:59:09;99711.13;;;49.18;11.00
50105;BME280;47690;39.202;-77.198;2023-04-15T03:01:43;99714.84;;;49.08;11.51
50105;BME280;47690;39.202;-77.198;2023-04-15T03:04:15;99709.16;;;49.05;11.64
50105;BME280;47690;39.202;-77.198;2023-04-15T03:06:45;99715.00;;;48.98;11.26
50105;BME280;47690;39.202;-77.198;2023-04-15T03:09:19;99707.41;;;48.95;11.32
50105;BME280;47690;39.202;-77.198;2023-04-15T03:11:50;99710.47;;;48.88;11.35
50105;BME280;47690;39.202;-77.198;2023-04-15T03:14:27;99710.41;;;48.93;11.96
50105;BME280;47690;39.202;-77.198;2023-04-15T03:17:00;99704.44;;;49.11;11.19
50105;BME280;47690;39.202;-77.198;2023-04-15T03:19:31;99711.59;;;49.06;11.22
50105;BME280;47690;39.202;-77.198;2023-04-15T03:22:05;99710.13;;;49.14;11.25
50105;BME280;47690;39.202;-77.198;2023-04-15T03:24:36;99707.31;;;49.00;12.02
50105;BME280;47690;39.202;-77.198;2023-04-15T03:27:11;99704.28;;;49.02;11.68
50105;BME280;47690;39.202;-77.198;2023-04-15T03:29:42;99693.34;;;49.02;11.28
50105;BME280;47690;39.202;-77.198;2023-04-15T03:32:15;99694.06;;;49.07;11.45
50105;BME280;47690;39.202;-77.198;2023-04-15T03:34:47;99694.69;;;49.04;11.34
50105;BME280;47690;39.202;-77.198;2023-04-15T03:37:18;99690.63;;;49.02;11.88
50105;BME280;47690;39.202;-77.198;2023-04-15T03:39:49;99694.78;;;49.71;11.21
50105;BME280;47690;39.202;-77.198;2023-04-15T03:42:19;99689.88;;;50.57;10.80
50105;BME280;47690;39.202;-77.198;2023-04-15T03:44:51;99686.13;;;49.97;10.97
50105;BME280;47690;39.202;-77.198;2023-04-15T03:47:23;99683.91;;;49.32;11.22
50105;BME280;47690;39.202;-77.198;2023-04-15T03:49:54;99686.84;;;49.17;11.38
50105;BME280;47690;39.202;-77.198;2023-04-15T03:52:25;99682.09;;;49.22;11.18
50105;BME280;47690;39.202;-77.198;2023-04-15T03:54:57;99686.09;;;49.11;11.35
50105;BME280;47690;39.202;-77.198;2023-04-15T03:57:30;99685.00;;;49.98;11.36
50105;BME280;47690;39.202;-77.198;2023-04-15T04:00:05;99687.38;;;50.33;11.05
50105;BME280;47690;39.202;-77.198;2023-04-15T04:02:39;99679.84;;;49.96;11.12
50105;BME280;47690;39.202;-77.198;2023-04-15T04:05:12;99681.97;;;49.14;11.46
50105;BME280;47690;39.202;-77.198;2023-04-15T04:07:43;99670.22;;;48.94;12.24
50105;BME280;47690;39.202;-77.198;2023-04-15T04:10:14;99678.94;;;48.96;11.65
50105;BME280;47690;39.202;-77.198;2023-04-15T04:12:44;99676.09;;;48.82;11.88
50105;BME280;47690;39.202;-77.198;2023-04-15T04:15:14;99679.38;;;48.84;12.06
50105;BME280;47690;39.202;-77.198;2023-04-15T04:17:45;99677.41;;;48.90;11.96
50105;BME280;47690;39.202;-77.198;2023-04-15T04:20:15;99676.34;;;48.86;11.88
50105;BME280;47690;39.202;-77.198;2023-04-15T04:22:46;99672.22;;;48.88;11.56
50105;BME280;47690;39.202;-77.198;2023-04-15T04:25:15;99682.19;;;49.17;11.72
50105;BME280;47690;39.202;-77.198;2023-04-15T04:27:48;99676.22;;;48.96;11.99
50105;BME280;47690;39.202;-77.198;2023-04-15T04:30:19;99686.41;;;49.10;11.53
50105;BME280;47690;39.202;-77.198;2023-04-15T04:32:50;99687.19;;;49.82;11.29
50105;BME280;47690;39.202;-77.198;2023-04-15T04:35:21;99683.69;;;50.09;11.25
50105;BME280;47690;39.202;-77.198;2023-04-15T04:37:52;99681.16;;;50.13;10.80
50105;BME280;47690;39.202;-77.198;2023-04-15T04:40:25;99682.41;;;50.21;11.40
50105;BME280;47690;39.202;-77.198;2023-04-15T04:42:59;99682.59;;;50.38;10.94
50105;BME280;47690;39.202;-77.198;2023-04-15T04:45:31;99684.53;;;50.38;11.02
50105;BME280;47690;39.202;-77.198;2023-04-15T04:48:01;99692.63;;;50.15;10.76
50105;BME280;47690;39.202;-77.198;2023-04-15T04:50:38;99688.56;;;50.12;10.73
50105;BME280;47690;39.202;-77.198;2023-04-15T04:53:10;99696.97;;;50.16;11.47
50105;BME280;47690;39.202;-77.198;2023-04-15T04:58:31;99686.34;;;50.14;10.96
50105;BME280;47690;39.202;-77.198;2023-04-15T05:01:02;99683.13;;;49.93;10.87
50105;BME280;47690;39.202;-77.198;2023-04-15T05:03:33;99681.00;;;49.04;11.70
50105;BME280;47690;39.202;-77.198;2023-04-15T05:06:06;99660.88;;;50.70;11.23
50105;BME280;47690;39.202;-77.198;2023-04-15T05:08:38;99673.59;;;49.63;11.80
50105;BME280;47690;39.202;-77.198;2023-04-15T05:11:10;99668.56;;;49.31;11.99
50105;BME280;47690;39.202;-77.198;2023-04-15T05:13:43;99664.16;;;49.35;11.71
50105;BME280;47690;39.202;-77.198;2023-04-15T05:16:13;99658.91;;;49.20;11.27
50105;BME280;47690;39.202;-77.198;2023-04-15T05:18:44;99661.81;;;49.10;11.81
50105;BME280;47690;39.202;-77.198;2023-04-15T05:21:15;99673.53;;;49.10;11.61
50105;BME280;47690;39.202;-77.198;2023-04-15T05:23:47;99665.69;;;49.22;11.77
50105;BME280;47690;39.202;-77.198;2023-04-15T05:26:19;99663.94;;;50.26;11.09
50105;BME280;47690;39.202;-77.198;2023-04-15T05:28:51;99658.75;;;50.53;11.15
50105;BME280;47690;39.202;-77.198;2023-04-15T05:31:25;99665.94;;;49.93;11.80
50105;BME280;47690;39.202;-77.198;2023-04-15T05:33:59;99665.81;;;49.51;12.26
50105;BME280;47690;39.202;-77.198;2023-04-15T05:36:32;99670.31;;;49.27;11.55
50105;BME280;47690;39.202;-77.198;2023-04-15T05:39:04;99652.44;;;49.49;11.96
50105;BME280;47690;39.202;-77.198;2023-04-15T05:41:38;99652.94;;;49.18;12.09
50105;BME280;47690;39.202;-77.198;2023-04-15T05:44:10;99653.38;;;49.25;12.13
50105;BME280;47690;39.202;-77.198;2023-04-15T05:46:42;99645.94;;;49.78;11.77
50105;BME280;47690;39.202;-77.198;2023-04-15T05:49:12;99647.75;;;49.83;11.77
50105;BME280;47690;39.202;-77.198;2023-04-15T05:51:46;99639.63;;;49.30;12.23
50105;BME280;47690;39.202;-77.198;2023-04-15T05:54:18;99643.50;;;48.91;12.01
50105;BME280;47690;39.202;-77.198;2023-04-15T05:56:49;99641.19;;;48.79;12.45
50105;BME280;47690;39.202;-77.198;2023-04-15T05:59:23;99629.75;;;51.57;11.01
50105;BME280;47690;39.202;-77.198;2023-04-15T06:01:53;99644.59;;;49.61;11.69
50105;BME280;47690;39.202;-77.198;2023-04-15T06:04:25;99642.34;;;49.30;12.13
50105;BME280;47690;39.202;-77.198;2023-04-15T06:07:00;99639.19;;;49.23;12.00
50105;BME280;47690;39.202;-77.198;2023-04-15T06:09:31;99641.69;;;49.19;11.75
50105;BME280;47690;39.202;-77.198;2023-04-15T06:12:02;99629.06;;;49.24;12.25
50105;BME280;47690;39.202;-77.198;2023-04-15T06:14:33;99632.91;;;50.03;11.45
50105;BME280;47690;39.202;-77.198;2023-04-15T06:17:06;99631.25;;;49.41;11.58
50105;BME280;47690;39.202;-77.198;2023-04-15T06:19:38;99632.38;;;49.54;12.16
50105;BME280;47690;39.202;-77.198;2023-04-15T06:22:09;99624.06;;;49.45;11.50
50105;BME280;47690;39.202;-77.198;2023-04-15T06:24:42;99624.38;;;49.43;12.26
50105;BME280;47690;39.202;-77.198;2023-04-15T06:27:13;99619.75;;;49.58;11.81
50105;BME280;47690;39.202;-77.198;2023-04-15T06:29:48;99610.50;;;49.40;12.40
50105;BME280;47690;39.202;-77.198;2023-04-15T06:32:20;99613.53;;;49.38;12.22
50105;BME280;47690;39.202;-77.198;2023-04-15T06:34:51;99610.69;;;49.43;12.20
50105;BME280;47690;39.202;-77.198;2023-04-15T06:37:21;99606.28;;;49.28;11.85
50105;BME280;47690;39.202;-77.198;2023-04-15T06:39:54;99608.16;;;49.14;12.15
50105;BME280;47690;39.202;-77.198;2023-04-15T06:42:27;99598.63;;;49.11;12.19
50105;BME280;47690;39.202;-77.198;2023-04-15T06:44:59;99595.38;;;49.09;12.38
50105;BME280;47690;39.202;-77.198;2023-04-15T06:47:33;99595.38;;;49.09;12.27
50105;BME280;47690;39.202;-77.198;2023-04-15T06:50:04;99590.94;;;49.13;12.12
50105;BME280;47690;39.202;-77.198;2023-04-15T06:52:35;99581.19;;;49.40;11.79
50105;BME280;47690;39.202;-77.198;2023-04-15T06:55:07;99588.31;;;49.55;12.14
50105;BME280;47690;39.202;-77.198;2023-04-15T06:57:38;99580.81;;;49.47;12.14
50105;BME280;47690;39.202;-77.198;2023-04-15T07:00:10;99574.25;;;49.48;11.65
50105;BME280;47690;39.202;-77.198;2023-04-15T07:02:43;99569.63;;;49.29;11.94
50105;BME280;47690;39.202;-77.198;2023-04-15T07:05:16;99584.75;;;49.41;12.09
50105;BME280;47690;39.202;-77.198;2023-04-15T07:07:47;99578.56;;;49.35;11.99
50105;BME280;47690;39.202;-77.198;2023-04-15T07:10:19;99582.72;;;49.32;12.01
50105;BME280;47690;39.202;-77.198;2023-04-15T07:12:53;99573.41;;;49.33;12.18
50105;BME280;47690;39.202;-77.198;2023-04-15T07:15:23;99570.19;;;49.45;12.22
50105;BME280;47690;39.202;-77.198;2023-04-15T07:18:00;99576.97;;;49.48;11.97
50105;BME280;47690;39.202;-77.198;2023-04-15T07:20:31;99584.94;;;49.30;12.08
50105;BME280;47690;39.202;-77.198;2023-04-15T07:23:04;99577.28;;;49.13;12.01
50105;BME280;47690;39.202;-77.198;2023-04-15T07:25:36;99577.34;;;49.08;12.32
50105;BME280;47690;39.202;-77.198;2023-04-15T07:28:07;99574.84;;;49.12;12.81
50105;BME280;47690;39.202;-77.198;2023-04-15T07:30:38;99572.59;;;49.14;12.26
50105;BME280;47690;39.202;-77.198;2023-04-15T07:33:11;99576.28;;;49.23;12.58
50105;BME280;47690;39.202;-77.198;2023-04-15T07:35:43;99573.66;;;49.18;12.35
50105;BME280;47690;39.202;-77.198;2023-04-15T07:38:14;99569.16;;;49.08;12.11
50105;BME280;47690;39.202;-77.198;2023-04-15T07:40:47;99557.59;;;49.30;12.47
50105;BME280;47690;39.202;-77.198;2023-04-15T07:43:19;99557.09;;;49.28;12.57
50105;BME280;47690;39.202;-77.198;2023-04-15T07:45:49;99557.47;;;49.69;11.80
50105;BME280;47690;39.202;-77.198;2023-04-15T07:48:21;99542.25;;;50.05;11.94
50105;BME280;47690;39.202;-77.198;2023-04-15T07:50:54;99558.13;;;50.45;10.94
50105;BME280;47690;39.202;-77.198;2023-04-15T07:53:24;99561.16;;;50.43;11.81
50105;BME280;47690;39.202;-77.198;2023-04-15T07:56:00;99566.13;;;51.46;11.22
50105;BME280;47690;39.202;-77.198;2023-04-15T07:58:33;99557.91;;;50.78;11.12
50105;BME280;47690;39.202;-77.198;2023-04-15T08:01:04;99556.06;;;50.50;11.77
50105;BME280;47690;39.202;-77.198;2023-04-15T08:03:35;99549.09;;;50.30;11.53
50105;BME280;47690;39.202;-77.198;2023-04-15T08:06:07;99562.81;;;49.60;12.65
50105;BME280;47690;39.202;-77.198;2023-04-15T08:08:39;99569.75;;;49.05;12.28
50105;BME280;47690;39.202;-77.198;2023-04-15T08:11:14;99570.47;;;49.11;12.62
50105;BME280;47690;39.202;-77.198;2023-04-15T08:13:46;99572.03;;;48.98;12.86
50105;BME280;47690;39.202;-77.198;2023-04-15T08:16:20;99578.34;;;48.98;12.25
50105;BME280;47690;39.202;-77.198;2023-04-15T08:18:55;99582.22;;;49.11;12.81
50105;BME280;47690;39.202;-77.198;2023-04-15T08:21:31;99580.22;;;49.17;12.32
50105;BME280;47690;39.202;-77.198;2023-04-15T08:24:05;99589.97;;;49.23;12.60
50105;BME280;47690;39.202;-77.198;2023-04-15T08:26:39;99583.22;;;49.34;12.59
50105;BME280;47690;39.202;-77.198;2023-04-15T08:29:14;99566.69;;;50.01;11.66
50105;BME280;47690;39.202;-77.198;2023-04-15T08:31:52;99564.09;;;49.48;12.97
50105;BME280;47690;39.202;-77.198;2023-04-15T08:34:26;99559.69;;;49.67;12.60
50105;BME280;47690;39.202;-77.198;2023-04-15T08:37:00;99570.00;;;49.22;12.60
50105;BME280;47690;39.202;-77.198;2023-04-15T08:39:31;99571.91;;;49.22;12.34
50105;BME280;47690;39.202;-77.198;2023-04-15T08:42:11;99565.78;;;50.06;12.49
50105;BME280;47690;39.202;-77.198;2023-04-15T08:44:46;99561.91;;;50.35;12.40
50105;BME280;47690;39.202;-77.198;2023-04-15T08:47:23;99554.16;;;50.51;11.58
50105;BME280;47690;39.202;-77.198;2023-04-15T08:50:02;99563.81;;;49.92;11.95
50105;BME280;47690;39.202;-77.198;2023-04-15T08:52:34;99572.13;;;49.59;11.99
50105;BME280;47690;39.202;-77.198;2023-04-15T08:55:15;99563.72;;;50.25;11.86
50105;BME280;47690;39.202;-77.198;2023-04-15T08:57:55;99564.28;;;49.52;12.02
50105;BME280;47690;39.202;-77.198;2023-04-15T09:00:31;99554.16;;;50.51;11.90
50105;BME280;47690;39.202;-77.198;2023-04-15T09:03:15;99567.44;;;49.45;12.29
50105;BME280;47690;39.202;-77.198;2023-04-15T09:05:51;99561.38;;;50.19;12.07
50105;BME280;47690;39.202;-77.198;2023-04-15T09:08:24;99565.66;;;51.53;11.76
50105;BME280;47690;39.202;-77.198;2023-04-15T09:10:59;99573.78;;;49.88;12.38
50105;BME280;47690;39.202;-77.198;2023-04-15T09:13:30;99570.13;;;49.31;12.40
50105;BME280;47690;39.202;-77.198;2023-04-15T09:16:07;99579.03;;;49.23;12.79
50105;BME280;47690;39.202;-77.198;2023-04-15T09:18:38;99580.06;;;49.27;12.82
50105;BME280;47690;39.202;-77.198;2023-04-15T09:21:13;99581.31;;;49.16;12.43
50105;BME280;47690;39.202;-77.198;2023-04-15T09:23:59;99576.84;;;49.39;12.87
50105;BME280;47690;39.202;-77.198;2023-04-15T09:26:35;99572.75;;;49.22;12.46
50105;BME280;47690;39.202;-77.198;2023-04-15T09:29:10;99571.88;;;49.27;12.43
50105;BME280;47690;39.202;-77.198;2023-04-15T09:31:46;99577.66;;;49.40;12.89
50105;BME280;47690;39.202;-77.198;2023-04-15T09:34:17;99579.19;;;49.13;12.46
50105;BME280;47690;39.202;-77.198;2023-04-15T09:39:20;99577.34;;;49.08;12.39
50105;BME280;47690;39.202;-77.198;2023-04-15T09:42:07;99580.91;;;49.42;13.26
50105;BME280;47690;39.202;-77.198;2023-04-15T09:44:38;99581.31;;;49.16;12.69
50105;BME280;47690;39.202;-77.198;2023-04-15T09:47:29;99589.75;;;49.53;12.53
50105;BME280;47690;39.202;-77.198;2023-04-15T09:50:01;99590.81;;;49.38;12.53
50105;BME280;47690;39.202;-77.198;2023-04-15T09:52:30;99597.31;;;49.42;12.66
50105;BME280;47690;39.202;-77.198;2023-04-15T09:55:04;99594.44;;;51.33;11.65
50105;BME280;47690;39.202;-77.198;2023-04-15T09:57:37;99595.47;;;50.12;12.18
50105;BME280;47690;39.202;-77.198;2023-04-15T10:00:08;99602.25;;;49.73;12.47
50105;BME280;47690;39.202;-77.198;2023-04-15T10:02:41;99602.81;;;49.56;12.33
50105;BME280;47690;39.202;-77.198;2023-04-15T10:05:14;99592.66;;;49.42;12.90
50105;BME280;47690;39.202;-77.198;2023-04-15T10:07:51;99598.84;;;49.48;13.18
50105;BME280;47690;39.202;-77.198;2023-04-15T10:10:22;99599.28;;;49.55;12.68
50105;BME280;47690;39.202;-77.198;2023-04-15T10:12:53;99593.34;;;50.09;12.47
50105;BME280;47690;39.202;-77.198;2023-04-15T10:15:27;99594.75;;;49.65;12.27
50105;BME280;47690;39.202;-77.198;2023-04-15T10:18:04;99592.41;;;49.86;12.29
50105;BME280;47690;39.202;-77.198;2023-04-15T10:20:37;99599.81;;;49.71;12.40
50105;BME280;47690;39.202;-77.198;2023-04-15T10:23:10;99607.22;;;49.71;12.75
50105;BME280;47690;39.202;-77.198;2023-04-15T10:25:43;99612.81;;;49.46;12.45
50105;BME280;47690;39.202;-77.198;2023-04-15T10:28:16;99604.81;;;49.50;13.17
50105;BME280;47690;39.202;-77.198;2023-04-15T10:30:47;99600.88;;;49.56;12.99
50105;BME280;47690;39.202;-77.198;2023-04-15T10:33:23;99616.13;;;49.63;12.46
50105;BME280;47690;39.202;-77.198;2023-04-15T10:35:56;99618.69;;;50.29;12.52
50105;BME280;47690;39.202;-77.198;2023-04-15T10:41:24;99621.63;;;50.47;12.56
50105;BME280;47690;39.202;-77.198;2023-04-15T10:44:02;99617.88;;;50.42;12.61
50105;BME280;47690;39.202;-77.198;2023-04-15T10:46:39;99615.72;;;50.90;11.48
50105;BME280;47690;39.202;-77.198;2023-04-15T10:49:15;99615.63;;;51.18;12.23
50105;BME280;47690;39.202;-77.198;2023-04-15T10:51:52;99622.09;;;51.00;11.92
50105;BME280;47690;39.202;-77.198;2023-04-15T10:59:35;99633.88;;;49.65;12.65
50105;BME280;47690;39.202;-77.198;2023-04-15T11:02:08;99630.69;;;49.25;12.66
50105;BME280;47690;39.202;-77.198;2023-04-15T11:04:54;99622.22;;;49.40;12.94
50105;BME280;47690;39.202;-77.198;2023-04-15T11:07:46;99628.03;;;49.53;12.96
50105;BME280;47690;39.202;-77.198;2023-04-15T11:13:03;99629.66;;;49.54;12.55
50105;BME280;47690;39.202;-77.198;2023-04-15T11:15:45;99633.47;;;49.39;12.96
50105;BME280;47690;39.202;-77.198;2023-04-15T11:18:20;99644.00;;;49.65;12.65
50105;BME280;47690;39.202;-77.198;2023-04-15T11:21:11;99649.78;;;49.91;12.63
50105;BME280;47690;39.202;-77.198;2023-04-15T11:23:44;99648.47;;;49.88;12.26
50105;BME280;47690;39.202;-77.198;2023-04-15T11:26:17;99643.72;;;49.80;12.49
50105;BME280;47690;39.202;-77.198;2023-04-15T11:28:53;99653.78;;;49.99;12.64
50105;BME280;47690;39.202;-77.198;2023-04-15T11:31:27;99654.78;;;49.89;12.92
50105;BME280;47690;39.202;-77.198;2023-04-15T11:34:02;99661.94;;;49.85;12.38
50105;BME280;47690;39.202;-77.198;2023-04-15T11:36:35;99663.38;;;49.82;12.84
50105;BME280;47690;39.202;-77.198;2023-04-15T11:39:08;99667.34;;;49.76;12.67
50105;BME280;47690;39.202;-77.198;2023-04-15T11:41:40;99666.91;;;49.69;12.71
50105;BME280;47690;39.202;-77.198;2023-04-15T11:44:16;99667.34;;;49.76;12.65
50105;BME280;47690;39.202;-77.198;2023-04-15T11:46:50;99666.56;;;50.04;12.84
50105;BME280;47690;39.202;-77.198;2023-04-15T11:49:31;99669.50;;;50.21;12.86
50105;BME280;47690;39.202;-77.198;2023-04-15T11:52:14;99666.47;;;50.37;12.27
50105;BME280;47690;39.202;-77.198;2023-04-15T11:54:44;99666.81;;;50.35;13.07
50105;BME280;47690;39.202;-77.198;2023-04-15T11:57:14;99661.72;;;50.42;12.74
50105;BME280;47690;39.202;-77.198;2023-04-15T12:08:00;99670.75;;;50.94;11.84
50105;BME280;47690;39.202;-77.198;2023-04-15T12:10:30;99670.81;;;50.52;12.53
50105;BME280;47690;39.202;-77.198;2023-04-15T12:21:18;99684.91;;;50.45;12.75
50105;BME280;47690;39.202;-77.198;2023-04-15T12:23:50;99685.81;;;49.98;13.08
50105;BME280;47690;39.202;-77.198;2023-04-15T12:26:28;99686.69;;;49.94;13.38
50105;BME280;47690;39.202;-77.198;2023-04-15T12:29:06;99689.22;;;49.76;12.95
50105;BME280;47690;39.202;-77.198;2023-04-15T12:31:56;99692.75;;;49.91;12.97
50105;BME280;47690;39.202;-77.198;2023-04-15T12:34:33;99693.13;;;50.31;12.58
50105;BME280;47690;39.202;-77.198;2023-04-15T12:37:09;99684.31;;;50.48;12.36
50105;BME280;47690;39.202;-77.198;2023-04-15T12:39:41;99685.16;;;51.22;11.85
50105;BME280;47690;39.202;-77.198;2023-04-15T12:42:15;99687.56;;;51.01;12.00
50105;BME280;47690;39.202;-77.198;2023-04-15T12:44:47;99691.72;;;51.35;11.98
50105;BME280;47690;39.202;-77.198;2023-04-15T12:47:18;99692.97;;;50.92;12.32
50105;BME280;47690;39.202;-77.198;2023-04-15T12:49:50;99699.47;;;50.32;12.80
50105;BME280;47690;39.202;-77.198;2023-04-15T12:52:20;99688.06;;;50.24;13.02
50105;BME280;47690;39.202;-77.198;2023-04-15T12:54:50;99681.59;;;50.06;13.21
50105;BME280;47690;39.202;-77.198;2023-04-15T12:57:20;99684.81;;;50.08;12.70
50105;BME280;47690;39.202;-77.198;2023-04-15T12:59:55;99688.09;;;51.40;11.43
50105;BME280;47690;39.202;-77.198;2023-04-15T13:02:26;99686.84;;;51.46;12.14
50105;BME280;47690;39.202;-77.198;2023-04-15T13:04:57;99691.22;;;50.46;12.36
50105;BME280;47690;39.202;-77.198;2023-04-15T13:07:32;99693.66;;;50.19;12.52
50105;BME280;47690;39.202;-77.198;2023-04-15T13:10:02;99693.81;;;50.09;12.76
50105;BME280;47690;39.202;-77.198;2023-04-15T13:12:32;99695.75;;;50.22;12.52
50105;BME280;47690;39.202;-77.198;2023-04-15T13:15:11;99682.41;;;50.21;12.71
50105;BME280;47690;39.202;-77.198;2023-04-15T13:17:42;99688.16;;;50.19;13.18
50105;BME280;47690;39.202;-77.198;2023-04-15T13:20:12;99689.50;;;50.36;12.71
50105;BME280;47690;39.202;-77.198;2023-04-15T13:22:43;99686.34;;;50.14;12.55
50105;BME280;47690;39.202;-77.198;2023-04-15T13:25:15;99676.81;;;50.12;12.70
50105;BME280;47690;39.202;-77.198;2023-04-15T13:27:44;99674.69;;;50.23;12.41
50105;BME280;47690;39.202;-77.198;2023-04-15T13:30:15;99667.06;;;51.13;12.24
50105;BME280;47690;39.202;-77.198;2023-04-15T13:32:48;99669.28;;;51.10;12.08
50105;BME280;47690;39.202;-77.198;2023-04-15T13:35:19;99674.38;;;51.40;12.14
50105;BME280;47690;39.202;-77.198;2023-04-15T13:37:48;99674.59;;;51.84;11.71
50105;BME280;47690;39.202;-77.198;2023-04-15T13:40:18;99671.69;;;50.89;12.28
50105;BME280;47690;39.202;-77.198;2023-04-15T13:42:51;99672.75;;;50.51;12.26